sensor_id;sensor_type;location;lat;lon;timestamp;pressure;altitude;pressure_sealevel;temperature;humidity
54816;BME280;40715;55.752;37.884;2023-04-06T00:00:57;99700.19;;;31.57;30.30
54816;BME280;40715;55.752;37.884;2023-04-06T00:03:24;99703.75;;;31.58;30.33
54816;BME280;40715;55.752;37.884;2023-04-06T00:05:51;99697.47;;;31.57;30.39
54816;BME280;40715;55.752;37.884;2023-04-06T00:08:18;99691.09;;;31.57;30.53
54816;BME280;40715;55.752;37.884;2023-04-06T00:10:48;99696.56;;;31.57;30.79
54816;BME280;40715;55.752;37.884;2023-04-06T00:13:14;99692.16;;;31.56;30.58
54816;BME280;40715;55.752;37.884;2023-04-06T00:15:41;99688.38;;;31.57;30.79
54816;BME280;40715;55.752;37.884;2023-04-06T00:18:09;99691.09;;;31.57;30.65
54816;BME280;40715;55.752;37.884;2023-04-06T00:20:36;99704.91;;;31.55;30.55
54816;BME280;40715;55.752;37.884;2023-04-06T00:23:02;99702.16;;;31.55;30.59
54816;BME280;40715;55.752;37.884;2023-04-06T00:25:29;99695.88;;;31.55;30.63
54816;BME280;40715;55.752;37.884;2023-04-06T00:27:57;99702.34;;;31.54;30.66
54816;BME280;40715;55.752;37.884;2023-04-06T00:30:24;99704.91;;;31.55;30.65
54816;BME280;40715;55.752;37.884;2023-04-06T00:32:51;99705.94;;;31.54;30.99
54816;BME280;40715;55.752;37.884;2023-04-06T00:35:18;99697.78;;;31.54;31.01
54816;BME280;40715;55.752;37.884;2023-04-06T00:37:46;99695.22;;;31.53;30.61
54816;BME280;40715;55.752;37.884;2023-04-06T00:40:15;99692.31;;;31.54;30.84
54816;BME280;40715;55.752;37.884;2023-04-06T00:42:42;99693.16;;;31.55;30.97
54816;BME280;40715;55.752;37.884;2023-04-06T00:45:11;99671.34;;;31.38;30.57
54816;BME280;40715;55.752;37.884;2023-04-06T00:47:38;99695.88;;;31.55;30.71
54816;BME280;40715;55.752;37.884;2023-04-06T00:50:06;99690.09;;;31.49;30.62
54816;BME280;40715;55.752;37.884;2023-04-06T00:52:34;99687.19;;;31.51;30.71
54816;BME280;40715;55.752;37.884;2023-04-06T00:55:03;99696.06;;;31.53;30.85
54816;BME280;40715;55.752;37.884;2023-04-06T00:57:30;99693.50;;;31.52;31.11
54816;BME280;40715;55.752;37.884;2023-04-06T00:59:57;99694.16;;;31.54;31.00
54816;BME280;40715;55.752;37.884;2023-04-06T01:02:24;99697.94;;;31.53;31.19
54816;BME280;40715;55.752;37.884;2023-04-06T01:04:53;99694.34;;;31.52;31.08
54816;BME280;40715;55.752;37.884;2023-04-06T01:07:21;99693.16;;;31.55;31.13
54816;BME280;40715;55.752;37.884;2023-04-06T01:09:48;99684.16;;;31.54;31.39
54816;BME280;40715;55.752;37.884;2023-04-06T01:12:14;99695.03;;;31.54;31.44
54816;BME280;40715;55.752;37.884;2023-04-06T01:14:41;99688.91;;;31.52;31.56
54816;BME280;40715;55.752;37.884;2023-04-06T01:17:08;99693.34;;;31.53;31.62
54816;BME280;40715;55.752;37.884;2023-04-06T01:19:36;99683.63;;;31.50;31.55
54816;BME280;40715;55.752;37.884;2023-04-06T01:22:03;99686.19;;;31.52;31.62
54816;BME280;40715;55.752;37.884;2023-04-06T01:24:30;99689.91;;;31.51;31.26
54816;BME280;40715;55.752;37.884;2023-04-06T01:26:57;99689.25;;;31.49;31.08
54816;BME280;40715;55.752;37.884;2023-04-06T01:29:24;99692.97;;;31.48;31.29
54816;BME280;40715;55.752;37.884;2023-04-06T01:31:51;99684.81;;;31.48;31.51
54816;BME280;40715;55.752;37.884;2023-04-06T01:34:18;99685.50;;;31.50;31.53
54816;BME280;40715;55.752;37.884;2023-04-06T01:36:45;99690.78;;;31.52;31.80
54816;BME280;40715;55.752;37.884;2023-04-06T01:39:12;99688.91;;;31.52;31.82
54816;BME280;40715;55.752;37.884;2023-04-06T01:41:39;99677.34;;;31.50;31.91
54816;BME280;40715;55.752;37.884;2023-04-06T01:44:06;99678.00;;;31.52;32.09
54816;BME280;40715;55.752;37.884;2023-04-06T01:46:33;99679.91;;;31.52;31.70
54816;BME280;40715;55.752;37.884;2023-04-06T01:49:00;99678.88;;;31.53;31.77
54816;BME280;40715;55.752;37.884;2023-04-06T01:51:27;99685.34;;;31.52;32.12
54816;BME280;40715;55.752;37.884;2023-04-06T01:53:54;99672.56;;;31.52;32.09
54816;BME280;40715;55.752;37.884;2023-04-06T01:56:21;99676.16;;;31.53;32.02
54816;BME280;40715;55.752;37.884;2023-04-06T01:58:48;99675.47;;;31.50;32.09
54816;BME280;40715;55.752;37.884;2023-04-06T02:01:15;99685.50;;;31.50;31.99
54816;BME280;40715;55.752;37.884;2023-04-06T02:03:42;99680.72;;;31.52;31.63
54816;BME280;40715;55.752;37.884;2023-04-06T02:06:09;99691.63;;;31.52;32.09
54816;BME280;40715;55.752;37.884;2023-04-06T02:08:36;99695.34;;;31.51;31.71
54816;BME280;40715;55.752;37.884;2023-04-06T02:11:04;99696.41;;;31.50;31.79
54816;BME280;40715;55.752;37.884;2023-04-06T02:13:31;99696.56;;;31.48;31.86
54816;BME280;40715;55.752;37.884;2023-04-06T02:15:58;99694.50;;;31.50;31.81
54816;BME280;40715;55.752;37.884;2023-04-06T02:18:25;99698.25;;;31.49;31.65
54816;BME280;40715;55.752;37.884;2023-04-06T02:20:52;99696.22;;;31.52;31.80
54816;BME280;40715;55.752;37.884;2023-04-06T02:23:19;99699.78;;;31.52;31.79
54816;BME280;40715;55.752;37.884;2023-04-06T02:25:46;99702.50;;;31.52;32.15
54816;BME280;40715;55.752;37.884;2023-04-06T02:28:13;99705.06;;;31.54;31.73
54816;BME280;40715;55.752;37.884;2023-04-06T02:30:40;99715.13;;;31.53;31.88
54816;BME280;40715;55.752;37.884;2023-04-06T02:33:07;99708.84;;;31.53;31.77
54816;BME280;40715;55.752;37.884;2023-04-06T02:35:34;99707.13;;;31.52;32.04
54816;BME280;40715;55.752;37.884;2023-04-06T02:38:02;99713.56;;;31.50;31.77
54816;BME280;40715;55.752;37.884;2023-04-06T02:40:29;99702.84;;;31.49;31.77
54816;BME280;40715;55.752;37.884;2023-04-06T02:42:55;99715.28;;;31.52;31.98
54816;BME280;40715;55.752;37.884;2023-04-06T02:45:22;99716.28;;;31.50;31.73
54816;BME280;40715;55.752;37.884;2023-04-06T02:47:49;99712.03;;;31.48;31.94
54816;BME280;40715;55.752;37.884;2023-04-06T02:50:16;99723.44;;;31.52;31.67
54816;BME280;40715;55.752;37.884;2023-04-06T02:52:43;99727.03;;;31.52;32.03
54816;BME280;40715;55.752;37.884;2023-04-06T02:55:10;99720.56;;;31.53;32.30
54816;BME280;40715;55.752;37.884;2023-04-06T02:57:38;99719.72;;;31.53;31.79
54816;BME280;40715;55.752;37.884;2023-04-06T03:00:05;99728.19;;;31.49;32.12
54816;BME280;40715;55.752;37.884;2023-04-06T03:02:33;99721.56;;;31.52;32.26
54816;BME280;40715;55.752;37.884;2023-04-06T03:05:00;99730.63;;;31.53;31.90
54816;BME280;40715;55.752;37.884;2023-04-06T03:07:28;99731.78;;;31.50;32.45
54816;BME280;40715;55.752;37.884;2023-04-06T03:09:56;99733.81;;;31.48;32.45
54816;BME280;40715;55.752;37.884;2023-04-06T03:12:23;99737.06;;;31.52;32.51
54816;BME280;40715;55.752;37.884;2023-04-06T03:14:50;99737.06;;;31.52;32.75
54816;BME280;40715;55.752;37.884;2023-04-06T03:17:17;99736.06;;;31.53;33.47
54816;BME280;40715;55.752;37.884;2023-04-06T03:19:44;99741.50;;;31.53;33.79
54816;BME280;40715;55.752;37.884;2023-04-06T03:22:10;99744.91;;;31.55;34.32
54816;BME280;40715;55.752;37.884;2023-04-06T03:24:37;99751.34;;;31.54;34.62
54816;BME280;40715;55.752;37.884;2023-04-06T03:27:04;99746.59;;;31.56;35.51
54816;BME280;40715;55.752;37.884;2023-04-06T03:29:32;99749.34;;;31.56;35.34
54816;BME280;40715;55.752;37.884;2023-04-06T03:31:59;99743.75;;;31.57;35.57
54816;BME280;40715;55.752;37.884;2023-04-06T03:34:26;99757.19;;;31.59;35.75
54816;BME280;40715;55.752;37.884;2023-04-06T03:36:53;99753.47;;;31.60;36.22
54816;BME280;40715;55.752;37.884;2023-04-06T03:39:34;99746.81;;;31.62;36.15
54816;BME280;40715;55.752;37.884;2023-04-06T03:42:02;99755.31;;;31.59;35.96
54816;BME280;40715;55.752;37.884;2023-04-06T03:44:29;99757.88;;;31.61;36.30
54816;BME280;40715;55.752;37.884;2023-04-06T03:46:56;99755.13;;;31.61;35.90
54816;BME280;40715;55.752;37.884;2023-04-06T03:49:23;99759.56;;;31.62;36.15
54816;BME280;40715;55.752;37.884;2023-04-06T03:51:50;99756.00;;;31.61;36.02
54816;BME280;40715;55.752;37.884;2023-04-06T03:54:17;99763.47;;;31.59;35.29
54816;BME280;40715;55.752;37.884;2023-04-06T03:56:44;99760.94;;;31.58;34.79
54816;BME280;40715;55.752;37.884;2023-04-06T03:59:11;99777.97;;;31.60;35.06
54816;BME280;40715;55.752;37.884;2023-04-06T04:01:38;99776.94;;;31.61;35.60
54816;BME280;40715;55.752;37.884;2023-04-06T04:04:06;99774.03;;;31.62;35.41
54816;BME280;40715;55.752;37.884;2023-04-06T04:06:32;99782.06;;;31.64;35.16
54816;BME280;40715;55.752;37.884;2023-04-06T04:08:59;99784.09;;;31.62;35.18
54816;BME280;40715;55.752;37.884;2023-04-06T04:11:26;99780.53;;;31.61;35.53
54816;BME280;40715;55.752;37.884;2023-04-06T04:13:53;99779.47;;;31.62;35.51
54816;BME280;40715;55.752;37.884;2023-04-06T04:16:22;99783.06;;;31.63;35.20
54816;BME280;40715;55.752;37.884;2023-04-06T04:18:49;99788.34;;;31.64;35.42
54816;BME280;40715;55.752;37.884;2023-04-06T04:21:16;99785.63;;;31.64;35.00
54816;BME280;40715;55.752;37.884;2023-04-06T04:23:43;99784.09;;;31.62;34.50
54816;BME280;40715;55.752;37.884;2023-04-06T04:26:10;99782.72;;;31.66;34.60
54816;BME280;40715;55.752;37.884;2023-04-06T04:28:39;99780.34;;;31.63;34.69
54816;BME280;40715;55.752;37.884;2023-04-06T04:31:06;99782.56;;;31.67;34.02
54816;BME280;40715;55.752;37.884;2023-04-06T04:33:33;99789.19;;;31.65;33.95
54816;BME280;40715;55.752;37.884;2023-04-06T04:36:01;99792.78;;;31.65;34.25
54816;BME280;40715;55.752;37.884;2023-04-06T04:38:28;99788.19;;;31.66;34.18
54816;BME280;40715;55.752;37.884;2023-04-06T04:40:56;99797.19;;;31.66;34.17
54816;BME280;40715;55.752;37.884;2023-04-06T04:43:23;99792.63;;;31.67;33.79
54816;BME280;40715;55.752;37.884;2023-04-06T04:45:49;99795.34;;;31.67;33.81
54816;BME280;40715;55.752;37.884;2023-04-06T04:48:18;99796.19;;;31.67;33.69
54816;BME280;40715;55.752;37.884;2023-04-06T04:50:45;99795.34;;;31.67;34.03
54816;BME280;40715;55.752;37.884;2023-04-06T04:53:12;99796.00;;;31.69;34.08
54816;BME280;40715;55.752;37.884;2023-04-06T04:55:39;99803.34;;;31.69;33.80
54816;BME280;40715;55.752;37.884;2023-04-06T04:58:05;99787.50;;;31.64;33.78
54816;BME280;40715;55.752;37.884;2023-04-06T05:00:32;99795.16;;;31.69;33.95
54816;BME280;40715;55.752;37.884;2023-04-06T05:03:00;99798.06;;;31.67;33.92
54816;BME280;40715;55.752;37.884;2023-04-06T05:05:27;99802.31;;;31.70;33.55
54816;BME280;40715;55.752;37.884;2023-04-06T05:07:54;99805.72;;;31.72;33.76
54816;BME280;40715;55.752;37.884;2023-04-06T05:10:21;99806.75;;;31.71;33.38
54816;BME280;40715;55.752;37.884;2023-04-06T05:12:48;99804.00;;;31.71;33.36
54816;BME280;40715;55.752;37.884;2023-04-06T05:15:15;99799.44;;;31.71;33.66
54816;BME280;40715;55.752;37.884;2023-04-06T05:17:42;99798.56;;;31.71;33.60
54816;BME280;40715;55.752;37.884;2023-04-06T05:20:09;99794.00;;;31.71;33.48
54816;BME280;40715;55.752;37.884;2023-04-06T05:22:36;99804.72;;;31.73;33.66
54816;BME280;40715;55.752;37.884;2023-04-06T05:25:03;99800.28;;;31.72;33.38
54816;BME280;40715;55.752;37.884;2023-04-06T05:27:30;99801.13;;;31.72;33.51
54816;BME280;40715;55.752;37.884;2023-04-06T05:29:57;99808.28;;;31.73;33.65
54816;BME280;40715;55.752;37.884;2023-04-06T05:32:24;99806.41;;;31.74;33.16
54816;BME280;40715;55.752;37.884;2023-04-06T05:34:52;99797.72;;;31.70;33.22
54816;BME280;40715;55.752;37.884;2023-04-06T05:37:19;99807.94;;;31.76;33.12
54816;BME280;40715;55.752;37.884;2023-04-06T05:39:46;99806.22;;;31.75;33.22
54816;BME280;40715;55.752;37.884;2023-04-06T05:42:12;99812.53;;;31.76;33.18
54816;BME280;40715;55.752;37.884;2023-04-06T05:44:39;99801.66;;;31.76;33.29
54816;BME280;40715;55.752;37.884;2023-04-06T05:47:06;99807.94;;;31.76;33.48
54816;BME280;40715;55.752;37.884;2023-04-06T05:49:33;99808.94;;;31.75;33.28
54816;BME280;40715;55.752;37.884;2023-04-06T05:52:01;99801.66;;;31.76;33.04
54816;BME280;40715;55.752;37.884;2023-04-06T05:54:28;99805.03;;;31.78;32.94
54816;BME280;40715;55.752;37.884;2023-04-06T05:56:55;99804.22;;;31.77;32.93
54816;BME280;40715;55.752;37.884;2023-04-06T05:59:22;99802.31;;;31.78;33.03
54816;BME280;40715;55.752;37.884;2023-04-06T06:01:50;99802.31;;;31.78;33.29
54816;BME280;40715;55.752;37.884;2023-04-06T06:04:17;99802.31;;;31.78;32.94
54816;BME280;40715;55.752;37.884;2023-04-06T06:06:44;99802.31;;;31.78;33.20
54816;BME280;40715;55.752;37.884;2023-04-06T06:09:11;99798.41;;;31.80;32.66
54816;BME280;40715;55.752;37.884;2023-04-06T06:11:38;99799.44;;;31.79;32.78
54816;BME280;40715;55.752;37.884;2023-04-06T06:14:05;99800.31;;;31.80;32.91
54816;BME280;40715;55.752;37.884;2023-04-06T06:16:32;99799.25;;;31.81;32.69
54816;BME280;40715;55.752;37.884;2023-04-06T06:18:59;99797.41;;;31.81;32.78
54816;BME280;40715;55.752;37.884;2023-04-06T06:21:26;99801.69;;;31.84;32.69
54816;BME280;40715;55.752;37.884;2023-04-06T06:23:53;99808.81;;;31.85;32.87
54816;BME280;40715;55.752;37.884;2023-04-06T06:26:21;99799.78;;;31.84;32.63
54816;BME280;40715;55.752;37.884;2023-04-06T06:28:48;99806.94;;;31.86;32.65
54816;BME280;40715;55.752;37.884;2023-04-06T06:31:15;99798.44;;;31.89;32.41
54816;BME280;40715;55.752;37.884;2023-04-06T06:33:42;99802.00;;;31.89;32.61
54816;BME280;40715;55.752;37.884;2023-04-06T06:36:09;99802.88;;;31.90;32.20
54816;BME280;40715;55.752;37.884;2023-04-06T06:38:36;99806.44;;;31.90;32.48
54816;BME280;40715;55.752;37.884;2023-04-06T06:41:04;99801.84;;;31.91;32.48
54816;BME280;40715;55.752;37.884;2023-04-06T06:43:31;99801.00;;;31.90;32.42
54816;BME280;40715;55.752;37.884;2023-04-06T06:45:58;99800.28;;;31.88;32.12
54816;BME280;40715;55.752;37.884;2023-04-06T06:48:25;99795.19;;;31.93;32.04
54816;BME280;40715;55.752;37.884;2023-04-06T06:50:53;99802.53;;;31.93;32.42
54816;BME280;40715;55.752;37.884;2023-04-06T06:53:20;99810.53;;;31.94;32.28
54816;BME280;40715;55.752;37.884;2023-04-06T06:55:47;99807.81;;;31.94;32.34
54816;BME280;40715;55.752;37.884;2023-04-06T06:58:18;99804.22;;;31.94;31.89
54816;BME280;40715;55.752;37.884;2023-04-06T07:00:48;99804.06;;;31.95;32.25
54816;BME280;40715;55.752;37.884;2023-04-06T07:03:15;99798.25;;;31.90;32.00
54816;BME280;40715;55.752;37.884;2023-04-06T07:05:45;99803.72;;;31.98;31.92
54816;BME280;40715;55.752;37.884;2023-04-06T07:08:16;99798.94;;;32.00;31.77
54816;BME280;40715;55.752;37.884;2023-04-06T07:10:43;99802.38;;;32.03;31.96
54816;BME280;40715;55.752;37.884;2023-04-06T07:13:10;99801.19;;;31.97;31.65
54816;BME280;40715;55.752;37.884;2023-04-06T07:15:38;99806.13;;;32.01;31.78
54816;BME280;40715;55.752;37.884;2023-04-06T07:18:05;99793.16;;;32.04;31.80
54816;BME280;40715;55.752;37.884;2023-04-06T07:20:32;99791.13;;;32.06;31.83
54816;BME280;40715;55.752;37.884;2023-04-06T07:22:59;99789.06;;;32.08;31.78
54816;BME280;40715;55.752;37.884;2023-04-06T07:25:26;99805.25;;;32.09;31.56
54816;BME280;40715;55.752;37.884;2023-04-06T07:27:54;99797.94;;;32.10;31.79
54816;BME280;40715;55.752;37.884;2023-04-06T07:30:21;99803.22;;;32.11;31.77
54816;BME280;40715;55.752;37.884;2023-04-06T07:32:48;99793.03;;;32.13;31.29
54816;BME280;40715;55.752;37.884;2023-04-06T07:35:16;99801.03;;;32.15;31.61
54816;BME280;40715;55.752;37.884;2023-04-06T07:37:43;99802.06;;;32.14;31.24
54816;BME280;40715;55.752;37.884;2023-04-06T07:40:10;99800.19;;;32.14;31.35
54816;BME280;40715;55.752;37.884;2023-04-06T07:42:38;99803.75;;;32.15;31.65
54816;BME280;40715;55.752;37.884;2023-04-06T07:45:05;99785.56;;;32.15;31.58
54816;BME280;40715;55.752;37.884;2023-04-06T07:47:33;99799.00;;;32.17;31.13
54816;BME280;40715;55.752;37.884;2023-04-06T07:50:00;99798.81;;;32.18;31.03
54816;BME280;40715;55.752;37.884;2023-04-06T07:52:27;99798.81;;;32.18;31.18
54816;BME280;40715;55.752;37.884;2023-04-06T07:54:54;99803.28;;;32.20;31.08
54816;BME280;40715;55.752;37.884;2023-04-06T07:57:21;99788.59;;;32.21;31.06
54816;BME280;40715;55.752;37.884;2023-04-06T07:59:48;99794.22;;;32.19;31.55
54816;BME280;40715;55.752;37.884;2023-04-06T08:02:15;99803.75;;;32.23;31.42
54816;BME280;40715;55.752;37.884;2023-04-06T08:04:43;99805.81;;;32.21;30.94
54816;BME280;40715;55.752;37.884;2023-04-06T08:07:11;99802.56;;;32.26;31.12
54816;BME280;40715;55.752;37.884;2023-04-06T08:09:38;99797.97;;;32.26;30.84
54816;BME280;40715;55.752;37.884;2023-04-06T08:12:06;99798.97;;;32.25;31.24
54816;BME280;40715;55.752;37.884;2023-04-06T08:14:33;99796.94;;;32.27;30.75
54816;BME280;40715;55.752;37.884;2023-04-06T08:16:59;99793.22;;;32.28;31.17
54816;BME280;40715;55.752;37.884;2023-04-06T08:19:26;99798.66;;;32.28;30.95
54816;BME280;40715;55.752;37.884;2023-04-06T08:21:53;99792.00;;;32.31;30.69
54816;BME280;40715;55.752;37.884;2023-04-06T08:24:21;99790.47;;;32.28;30.98
54816;BME280;40715;55.752;37.884;2023-04-06T08:26:48;99791.84;;;32.32;30.50
54816;BME280;40715;55.752;37.884;2023-04-06T08:29:15;99803.75;;;32.31;30.72
54816;BME280;40715;55.752;37.884;2023-04-06T08:31:42;99794.56;;;32.32;30.84
54816;BME280;40715;55.752;37.884;2023-04-06T08:34:09;99795.25;;;32.34;30.87
54816;BME280;40715;55.752;37.884;2023-04-06T08:36:39;99802.56;;;32.34;30.45
54816;BME280;40715;55.752;37.884;2023-04-06T08:39:06;99794.56;;;32.32;30.37
54816;BME280;40715;55.752;37.884;2023-04-06T08:41:34;99794.56;;;32.32;30.43
54816;BME280;40715;55.752;37.884;2023-04-06T08:44:02;99789.97;;;32.33;30.74
54816;BME280;40715;55.752;37.884;2023-04-06T08:46:30;99793.53;;;32.33;30.71
54816;BME280;40715;55.752;37.884;2023-04-06T08:48:59;99786.41;;;32.32;30.18
54816;BME280;40715;55.752;37.884;2023-04-06T08:51:27;99790.97;;;32.32;30.31
54816;BME280;40715;55.752;37.884;2023-04-06T08:53:55;99791.16;;;32.30;30.19
54816;BME280;40715;55.752;37.884;2023-04-06T08:56:26;99789.44;;;32.29;30.26
54816;BME280;40715;55.752;37.884;2023-04-06T08:58:54;99786.53;;;32.31;30.25
54816;BME280;40715;55.752;37.884;2023-04-06T09:01:28;99786.22;;;32.34;30.48
54816;BME280;40715;55.752;37.884;2023-04-06T09:03:59;99787.41;;;32.31;30.33
54816;BME280;40715;55.752;37.884;2023-04-06T09:06:27;99785.34;;;32.33;30.18
54816;BME280;40715;55.752;37.884;2023-04-06T09:08:54;99785.34;;;32.33;30.12
54816;BME280;40715;55.752;37.884;2023-04-06T09:11:21;99785.34;;;32.33;30.39
54816;BME280;40715;55.752;37.884;2023-04-06T09:13:53;99789.13;;;32.32;30.11
54816;BME280;40715;55.752;37.884;2023-04-06T09:16:21;99791.84;;;32.32;30.19
54816;BME280;40715;55.752;37.884;2023-04-06T09:18:49;99786.22;;;32.34;30.33
54816;BME280;40715;55.752;37.884;2023-04-06T09:21:18;99787.06;;;32.34;30.28
54816;BME280;40715;55.752;37.884;2023-04-06T09:23:47;99795.25;;;32.34;30.21
54816;BME280;40715;55.752;37.884;2023-04-06T09:26:18;99786.22;;;32.34;30.13
54816;BME280;40715;55.752;37.884;2023-04-06T09:28:56;99784.50;;;32.33;30.31
54816;BME280;40715;55.752;37.884;2023-04-06T09:31:25;99788.06;;;32.33;30.16
54816;BME280;40715;55.752;37.884;2023-04-06T09:33:52;99788.25;;;32.32;29.88
54816;BME280;40715;55.752;37.884;2023-04-06T09:36:28;99787.59;;;32.30;30.03
54816;BME280;40715;55.752;37.884;2023-04-06T09:39:02;99781.59;;;32.34;29.35
54816;BME280;40715;55.752;37.884;2023-04-06T09:41:31;99784.16;;;32.28;29.85
54816;BME280;40715;55.752;37.884;2023-04-06T09:46:41;99772.75;;;32.24;29.83
54816;BME280;40715;55.752;37.884;2023-04-06T09:49:33;99781.59;;;32.26;29.60
54816;BME280;40715;55.752;37.884;2023-04-06T09:52:02;99779.06;;;32.25;29.41
54816;BME280;40715;55.752;37.884;2023-04-06T09:54:31;99780.06;;;32.24;29.50
54816;BME280;40715;55.752;37.884;2023-04-06T09:59:45;99778.88;;;32.26;29.31
54816;BME280;40715;55.752;37.884;2023-04-06T10:04:56;99776.50;;;32.23;29.39
54816;BME280;40715;55.752;37.884;2023-04-06T10:07:25;99777.34;;;32.24;29.52
54816;BME280;40715;55.752;37.884;2023-04-06T10:09:54;99773.13;;;32.21;29.36
54816;BME280;40715;55.752;37.884;2023-04-06T10:12:21;99765.25;;;32.18;29.46
54816;BME280;40715;55.752;37.884;2023-04-06T10:14:49;99777.69;;;32.21;29.26
54816;BME280;40715;55.752;37.884;2023-04-06T10:17:16;99781.94;;;32.23;29.21
54816;BME280;40715;55.752;37.884;2023-04-06T10:22:24;99771.88;;;32.24;29.16
54816;BME280;40715;55.752;37.884;2023-04-06T10:24:53;99770.22;;;32.23;29.26
54816;BME280;40715;55.752;37.884;2023-04-06T10:27:30;99771.72;;;32.25;29.24
54816;BME280;40715;55.752;37.884;2023-04-06T10:30:04;99775.66;;;32.23;29.29
54816;BME280;40715;55.752;37.884;2023-04-06T10:32:38;99766.25;;;32.25;28.72
54816;BME280;40715;55.752;37.884;2023-04-06T10:35:15;99774.13;;;32.28;29.15
54816;BME280;40715;55.752;37.884;2023-04-06T10:37:50;99766.78;;;32.21;29.03
54816;BME280;40715;55.752;37.884;2023-04-06T10:40:21;99766.78;;;32.21;28.81
54816;BME280;40715;55.752;37.884;2023-04-06T10:42:49;99766.13;;;32.18;28.63
54816;BME280;40715;55.752;37.884;2023-04-06T10:45:26;99763.75;;;32.15;28.86
54816;BME280;40715;55.752;37.884;2023-04-06T10:47:57;99778.88;;;32.18;28.91
54816;BME280;40715;55.752;37.884;2023-04-06T10:50:24;99765.91;;;32.12;29.03
54816;BME280;40715;55.752;37.884;2023-04-06T10:53:01;99755.41;;;32.17;29.12
54816;BME280;40715;55.752;37.884;2023-04-06T10:55:29;99756.59;;;32.14;28.60
54816;BME280;40715;55.752;37.884;2023-04-06T10:57:56;99769.19;;;32.15;28.56
54816;BME280;40715;55.752;37.884;2023-04-06T11:00:23;99758.47;;;32.14;28.89
54816;BME280;40715;55.752;37.884;2023-04-06T11:02:51;99755.56;;;32.15;28.53
54816;BME280;40715;55.752;37.884;2023-04-06T11:05:25;99759.13;;;32.16;28.54
54816;BME280;40715;55.752;37.884;2023-04-06T11:07:52;99763.03;;;32.13;28.86
54816;BME280;40715;55.752;37.884;2023-04-06T11:10:22;99759.47;;;32.13;28.63
54816;BME280;40715;55.752;37.884;2023-04-06T11:12:53;99757.41;;;32.15;28.86
54816;BME280;40715;55.752;37.884;2023-04-06T11:15:21;99740.41;;;32.13;28.60
54816;BME280;40715;55.752;37.884;2023-04-06T11:17:48;99769.38;;;32.14;28.84
54816;BME280;40715;55.752;37.884;2023-04-06T11:20:16;99762.88;;;32.15;28.94
54816;BME280;40715;55.752;37.884;2023-04-06T11:22:49;99764.75;;;32.14;28.87
54816;BME280;40715;55.752;37.884;2023-04-06T11:25:16;99763.91;;;32.14;28.92
54816;BME280;40715;55.752;37.884;2023-04-06T11:27:45;99760.47;;;32.12;28.91
54816;BME280;40715;55.752;37.884;2023-04-06T11:30:14;99762.22;;;32.13;28.41
54816;BME280;40715;55.752;37.884;2023-04-06T11:32:45;99762.22;;;32.13;28.74
54816;BME280;40715;55.752;37.884;2023-04-06T11:35:24;99755.03;;;32.20;28.55
54816;BME280;40715;55.752;37.884;2023-04-06T11:37:51;99759.63;;;32.11;28.51
54816;BME280;40715;55.752;37.884;2023-04-06T11:40:22;99751.44;;;32.11;28.84
54816;BME280;40715;55.752;37.884;2023-04-06T11:42:55;99758.28;;;32.15;28.40
54816;BME280;40715;55.752;37.884;2023-04-06T11:45:23;99753.00;;;32.14;28.62
54816;BME280;40715;55.752;37.884;2023-04-06T11:47:57;99757.41;;;32.15;28.73
54816;BME280;40715;55.752;37.884;2023-04-06T11:50:46;99758.09;;;32.33;28.21
54816;BME280;40715;55.752;37.884;2023-04-06T11:53:13;99749.94;;;32.17;28.53
54816;BME280;40715;55.752;37.884;2023-04-06T11:55:40;99752.63;;;32.09;28.32
54816;BME280;40715;55.752;37.884;2023-04-06T11:58:07;99748.03;;;32.09;28.51
54816;BME280;40715;55.752;37.884;2023-04-06T12:00:34;99743.44;;;32.10;28.18
54816;BME280;40715;55.752;37.884;2023-04-06T12:03:01;99740.88;;;32.08;28.45
54816;BME280;40715;55.752;37.884;2023-04-06T12:05:28;99747.19;;;32.09;28.52
54816;BME280;40715;55.752;37.884;2023-04-06T12:07:55;99734.22;;;32.11;28.26
54816;BME280;40715;55.752;37.884;2023-04-06T12:10:23;99738.00;;;32.10;28.26
54816;BME280;40715;55.752;37.884;2023-04-06T12:12:49;99754.16;;;32.11;28.30
54816;BME280;40715;55.752;37.884;2023-04-06T12:15:16;99745.28;;;32.09;28.37
54816;BME280;40715;55.752;37.884;2023-04-06T12:17:43;99748.19;;;32.08;28.11
54816;BME280;40715;55.752;37.884;2023-04-06T12:20:11;99734.56;;;32.08;28.31
54816;BME280;40715;55.752;37.884;2023-04-06T12:22:50;99735.94;;;32.12;28.31
54816;BME280;40715;55.752;37.884;2023-04-06T12:25:17;99733.56;;;32.09;28.18
54816;BME280;40715;55.752;37.884;2023-04-06T12:27:44;99735.44;;;32.08;28.67
54816;BME280;40715;55.752;37.884;2023-04-06T12:30:12;99737.47;;;32.06;28.04
54816;BME280;40715;55.752;37.884;2023-04-06T12:32:39;99740.88;;;32.08;28.51
54816;BME280;40715;55.752;37.884;2023-04-06T12:35:06;99735.44;;;32.08;28.21
54816;BME280;40715;55.752;37.884;2023-04-06T12:37:35;99741.72;;;32.09;28.31
54816;BME280;40715;55.752;37.884;2023-04-06T12:40:03;99729.13;;;32.08;28.10
54816;BME280;40715;55.752;37.884;2023-04-06T12:42:30;99744.63;;;32.07;28.50
54816;BME280;40715;55.752;37.884;2023-04-06T12:44:57;99744.47;;;32.09;28.04
54816;BME280;40715;55.752;37.884;2023-04-06T12:47:25;99732.84;;;32.07;28.34
54816;BME280;40715;55.752;37.884;2023-04-06T12:49:53;99730.00;;;32.08;28.13
54816;BME280;40715;55.752;37.884;2023-04-06T12:52:21;99735.44;;;32.08;28.42
54816;BME280;40715;55.752;37.884;2023-04-06T12:54:48;99737.13;;;32.09;28.38
54816;BME280;40715;55.752;37.884;2023-04-06T12:57:16;99724.03;;;32.05;28.16
54816;BME280;40715;55.752;37.884;2023-04-06T12:59:44;99736.28;;;32.09;28.13
54816;BME280;40715;55.752;37.884;2023-04-06T13:02:11;99730.13;;;32.07;28.04
54816;BME280;40715;55.752;37.884;2023-04-06T13:04:38;99727.28;;;32.08;28.37